createdAt,value
2022-12-28T00:02:20.186Z,6.50
2022-12-28T00:04:48.592Z,8.00
2022-12-28T00:07:17.023Z,9.00
2022-12-28T00:09:45.177Z,7.00
2022-12-28T00:12:14.662Z,7.00
2022-12-28T00:14:42.821Z,5.50
2022-12-28T00:17:14.498Z,7.00
2022-12-28T00:19:42.674Z,7.00
2022-12-28T00:22:10.808Z,3.25
2022-12-28T00:24:38.999Z,7.00
2022-12-28T00:27:07.128Z,8.00
2022-12-28T00:29:36.673Z,9.00
2022-12-28T00:32:04.974Z,5.00
2022-12-28T00:34:33.299Z,7.50
2022-12-28T00:37:09.574Z,3.00
2022-12-28T00:39:41.556Z,6.00
2022-12-28T00:42:09.922Z,6.00
2022-12-28T00:44:40.281Z,6.50
2022-12-28T00:47:09.114Z,4.50
2022-12-28T00:49:40.672Z,7.00
2022-12-28T00:52:09.014Z,8.50
2022-12-28T00:54:37.170Z,7.00
2022-12-28T00:57:05.539Z,6.00
2022-12-28T00:59:34.707Z,5.00
2022-12-28T01:02:04.479Z,9.00
2022-12-28T01:04:32.762Z,7.00
2022-12-28T01:07:00.934Z,7.00
2022-12-28T01:09:32.513Z,5.00
2022-12-28T01:12:00.710Z,0.25
2022-12-28T01:14:28.880Z,6.50
2022-12-28T01:16:57.051Z,6.00
2022-12-28T01:19:26.736Z,6.00
2022-12-28T01:21:54.960Z,6.00
2022-12-28T01:24:23.232Z,1.00
2022-12-28T01:26:51.546Z,5.25
2022-12-28T01:29:19.732Z,6.00
2022-12-28T01:31:50.137Z,5.00
2022-12-28T01:34:18.388Z,5.75
2022-12-28T01:36:49.639Z,7.00
2022-12-28T01:39:17.805Z,2.50
2022-12-28T01:41:46.031Z,6.00
2022-12-28T01:44:32.821Z,1.00
2022-12-28T01:47:04.427Z,0.75
2022-12-28T01:49:35.641Z,3.00
2022-12-28T01:52:08.658Z,6.75
2022-12-28T01:54:38.080Z,4.50
2022-12-28T01:57:06.457Z,5.60
2022-12-28T01:59:39.062Z,7.00
2022-12-28T02:02:07.578Z,7.00
2022-12-28T02:04:36.099Z,9.00
2022-12-28T02:07:05.847Z,4.50
2022-12-28T02:09:37.199Z,4.00
2022-12-28T02:12:05.502Z,6.00
2022-12-28T02:14:34.063Z,1.50
2022-12-28T02:17:02.285Z,4.00
2022-12-28T02:19:33.538Z,4.00
2022-12-28T02:22:13.040Z,6.00
2022-12-28T02:25:11.370Z,6.00
2022-12-28T02:27:49.060Z,7.00
2022-12-28T02:30:18.900Z,6.25
2022-12-28T02:32:57.223Z,5.50
2022-12-28T02:35:30.453Z,5.60
2022-12-28T02:38:02.692Z,6.00
2022-12-28T02:40:34.333Z,9.50
2022-12-28T02:43:03.534Z,6.50
2022-12-28T02:45:51.383Z,7.50
2022-12-28T02:48:37.043Z,3.75
2022-12-28T02:51:11.121Z,9.50
2022-12-28T02:54:00.245Z,9.25
2022-12-28T02:56:33.518Z,9.00
2022-12-28T02:59:13.901Z,7.00
2022-12-28T03:01:53.215Z,9.25
2022-12-28T03:04:28.713Z,6.80
2022-12-28T03:07:18.209Z,7.00
2022-12-28T03:09:51.372Z,8.00
2022-12-28T03:12:25.184Z,10.00
2022-12-28T03:14:56.536Z,9.00
2022-12-28T03:17:49.431Z,8.25
2022-12-28T03:20:39.725Z,3.50
2022-12-28T03:23:26.939Z,9.00
2022-12-28T03:26:14.460Z,9.25
2022-12-28T03:29:04.144Z,6.50
2022-12-28T03:31:38.659Z,9.25
2022-12-28T03:34:14.735Z,8.50
2022-12-28T03:36:53.447Z,7.00
2022-12-28T03:39:27.469Z,6.00
2022-12-28T03:42:13.960Z,9.00
2022-12-28T03:44:44.045Z,9.75
2022-12-28T03:47:13.512Z,3.50
2022-12-28T03:49:43.998Z,6.50
2022-12-28T03:52:13.117Z,9.00
2022-12-28T03:54:41.756Z,6.50
2022-12-28T03:57:12.920Z,8.00
2022-12-28T03:59:44.652Z,6.00
2022-12-28T04:02:13.210Z,7.00
2022-12-28T04:04:44.153Z,3.00
2022-12-28T04:07:12.735Z,5.50
2022-12-28T04:09:41.304Z,7.00
2022-12-28T04:12:12.530Z,6.00
2022-12-28T04:15:15.990Z,8.50
2022-12-28T04:17:44.325Z,7.00
2022-12-28T04:20:14.059Z,9.00
2022-12-28T04:22:42.168Z,7.00
2022-12-28T04:25:10.714Z,8.00
2022-12-28T04:27:39.200Z,7.00
2022-12-28T04:30:15.641Z,7.00
2022-12-28T04:32:43.786Z,4.00
2022-12-28T04:35:13.996Z,8.50
2022-12-28T04:37:49.949Z,8.00
2022-12-28T04:40:18.150Z,7.25
2022-12-28T04:42:46.385Z,7.00
2022-12-28T04:45:18.402Z,7.00
2022-12-28T04:47:50.227Z,4.00
2022-12-28T04:50:19.806Z,6.75
2022-12-28T04:52:47.937Z,4.50
2022-12-28T04:55:31.907Z,3.25
2022-12-28T04:58:01.696Z,7.00
2022-12-28T05:00:30.020Z,7.00
2022-12-28T05:02:59.671Z,5.00
2022-12-28T05:05:29.762Z,7.50
2022-12-28T05:08:01.117Z,7.00
2022-12-28T05:10:29.651Z,8.00
2022-12-28T05:12:57.977Z,9.75
2022-12-28T05:15:26.210Z,6.00
2022-12-28T05:17:55.826Z,6.50
2022-12-28T05:20:24.281Z,4.50
2022-12-28T05:22:53.806Z,9.00
2022-12-28T05:25:22.051Z,8.50
2022-12-28T05:27:50.352Z,6.75
2022-12-28T05:30:18.612Z,6.00
2022-12-28T05:32:46.783Z,6.50
2022-12-28T05:35:15.014Z,8.00
2022-12-28T05:37:43.243Z,9.00
2022-12-28T05:40:13.293Z,4.50
2022-12-28T05:42:45.221Z,6.50
2022-12-28T05:45:16.150Z,9.00
2022-12-28T05:47:44.371Z,7.00
2022-12-28T05:50:12.569Z,7.50
2022-12-28T05:52:40.996Z,9.00
2022-12-28T05:55:09.442Z,6.00
2022-12-28T05:57:39.083Z,9.50
2022-12-28T06:00:08.136Z,7.00
2022-12-28T06:02:42.795Z,9.50
2022-12-28T06:05:11.143Z,9.75
2022-12-28T06:07:39.347Z,7.25
2022-12-28T06:10:08.038Z,6.25
2022-12-28T06:12:36.233Z,6.00
2022-12-28T06:15:06.568Z,6.50
2022-12-28T06:17:34.782Z,5.00
2022-12-28T06:20:02.934Z,3.25
2022-12-28T06:22:31.965Z,7.00
2022-12-28T06:25:00.499Z,4.75
2022-12-28T06:27:28.687Z,6.25
2022-12-28T06:29:56.807Z,6.50
2022-12-28T06:32:26.365Z,5.00
2022-12-28T06:34:54.500Z,6.00
2022-12-28T06:37:22.911Z,5.00
2022-12-28T06:39:51.090Z,7.00
2022-12-28T06:42:19.355Z,8.00
2022-12-28T06:44:47.521Z,8.00
2022-12-28T06:47:20.990Z,7.00
2022-12-28T06:49:50.571Z,8.50
2022-12-28T06:52:18.927Z,7.00
2022-12-28T06:54:47.069Z,8.50
2022-12-28T06:57:15.325Z,7.50
2022-12-28T06:59:43.641Z,10.00
2022-12-28T07:02:11.809Z,6.50
2022-12-28T07:04:40.077Z,8.50
2022-12-28T07:07:10.087Z,0.00
2022-12-28T07:09:38.335Z,8.00
2022-12-28T07:12:06.930Z,0.50
2022-12-28T07:14:35.008Z,9.50
2022-12-28T07:17:03.141Z,0.50
2022-12-28T07:19:31.305Z,9.25
2022-12-28T07:21:59.778Z,10.00
2022-12-28T07:24:29.321Z,6.00
2022-12-28T07:26:57.471Z,10.00
2022-12-28T07:29:25.633Z,9.00
2022-12-28T07:31:54.043Z,7.00
2022-12-28T07:34:23.625Z,9.00
2022-12-28T07:36:51.819Z,11.00
2022-12-28T07:39:20.050Z,8.20
2022-12-28T07:41:49.562Z,10.00
2022-12-28T07:44:25.579Z,3.75
2022-12-28T07:46:57.511Z,6.00
2022-12-28T07:49:25.680Z,9.50
2022-12-28T07:51:54.006Z,12.00
2022-12-28T07:54:22.279Z,5.20
2022-12-28T07:56:52.035Z,11.60
2022-12-28T07:59:20.193Z,10.67
2022-12-28T08:01:51.142Z,8.50
2022-12-28T08:04:19.739Z,8.00
2022-12-28T08:06:48.329Z,12.75
2022-12-28T08:09:16.827Z,12.00
2022-12-28T08:11:45.981Z,9.00
2022-12-28T08:14:15.459Z,9.00
2022-12-28T08:16:44.575Z,11.50
2022-12-28T08:19:13.622Z,15.00
2022-12-28T08:21:43.048Z,11.00
2022-12-28T08:24:14.468Z,9.00
2022-12-28T08:26:42.778Z,9.00
2022-12-28T08:29:11.685Z,2.50
2022-12-28T08:31:42.245Z,11.50
2022-12-28T08:34:12.028Z,9.50
2022-12-28T08:36:40.275Z,14.25
2022-12-28T08:39:08.690Z,12.40
2022-12-28T08:41:37.081Z,12.50
2022-12-28T08:44:05.548Z,12.75
2022-12-28T08:46:34.733Z,2.50
2022-12-28T08:49:05.961Z,10.40
2022-12-28T08:51:35.315Z,11.60
2022-12-28T08:54:04.120Z,11.20
2022-12-28T08:56:33.786Z,13.20
2022-12-28T08:59:02.898Z,12.00
2022-12-28T09:01:37.296Z,11.20
2022-12-28T09:04:13.433Z,12.00
2022-12-28T09:06:41.741Z,7.00
2022-12-28T09:09:12.241Z,9.50
2022-12-28T09:11:40.919Z,7.00
2022-12-28T09:14:10.031Z,12.00
2022-12-28T09:16:38.829Z,14.00
2022-12-28T09:19:08.054Z,13.50
2022-12-28T09:21:38.446Z,12.00
2022-12-28T09:24:07.101Z,12.00
2022-12-28T09:26:36.631Z,12.00
2022-12-28T09:29:06.401Z,16.50
2022-12-28T09:31:37.381Z,12.50
2022-12-28T09:36:55.704Z,11.00
2022-12-28T09:39:25.176Z,13.00
2022-12-28T09:41:55.706Z,15.50
2022-12-28T09:44:48.078Z,12.75
2022-12-28T09:47:23.734Z,13.50
2022-12-28T09:50:00.174Z,13.00
2022-12-28T09:52:31.385Z,11.00
2022-12-28T09:55:05.493Z,11.00
2022-12-28T09:57:36.984Z,11.00
2022-12-28T10:00:05.794Z,13.50
2022-12-28T10:02:37.853Z,14.50
2022-12-28T10:05:06.557Z,12.50
2022-12-28T10:07:38.278Z,14.00
2022-12-28T10:10:07.052Z,12.00
2022-12-28T10:12:36.050Z,14.00
2022-12-28T10:15:07.383Z,12.50
2022-12-28T10:17:35.709Z,16.80
2022-12-28T10:20:03.904Z,15.00
2022-12-28T10:22:42.427Z,19.40
2022-12-28T10:25:17.064Z,15.40
2022-12-28T10:27:45.567Z,7.50
2022-12-28T10:30:18.445Z,15.00
2022-12-28T10:32:50.858Z,17.00
2022-12-28T10:35:26.162Z,12.80
2022-12-28T10:37:59.345Z,7.80
2022-12-28T10:40:29.841Z,15.60
2022-12-28T10:42:59.346Z,16.40
2022-12-28T10:45:34.288Z,13.00
2022-12-28T10:48:04.408Z,16.00
2022-12-28T10:50:41.031Z,16.75
2022-12-28T10:53:20.914Z,9.50
2022-12-28T10:55:50.575Z,12.25
2022-12-28T11:01:19.869Z,9.75
2022-12-28T11:03:22.025Z,18.50
2022-12-28T11:03:59.390Z,14.00
2022-12-28T11:06:28.257Z,13.00
2022-12-28T11:09:05.231Z,10.75
2022-12-28T11:11:34.807Z,14.50
2022-12-28T11:14:06.213Z,14.00
2022-12-28T11:16:37.394Z,14.25
2022-12-28T11:19:05.946Z,11.50
2022-12-28T11:21:35.148Z,13.00
2022-12-28T11:24:03.608Z,16.50
2022-12-28T11:26:32.609Z,12.50
2022-12-28T11:29:26.248Z,15.00
2022-12-28T11:31:58.220Z,12.00
2022-12-28T11:34:28.443Z,12.75
2022-12-28T11:36:56.728Z,14.50
2022-12-28T11:39:42.155Z,15.25
2022-12-28T11:42:37.998Z,12.00
2022-12-28T11:44:58.604Z,15.25
2022-12-28T11:47:33.479Z,13.00
2022-12-28T11:50:34.824Z,13.00
2022-12-28T11:53:04.727Z,11.75
2022-12-28T11:55:48.674Z,12.50
2022-12-28T11:58:35.261Z,7.50
2022-12-28T12:01:03.791Z,1.00
2022-12-28T12:03:50.657Z,14.20
2022-12-28T12:06:24.170Z,14.60
2022-12-28T12:08:55.350Z,14.20
2022-12-28T12:11:33.607Z,16.80
2022-12-28T12:14:03.225Z,11.20
2022-12-28T12:16:35.278Z,12.20
2022-12-28T12:19:07.112Z,12.80
2022-12-28T12:21:40.565Z,13.00
2022-12-28T12:24:18.781Z,11.60
2022-12-28T12:26:50.443Z,11.00
2022-12-28T12:29:20.908Z,12.00
2022-12-28T12:31:52.194Z,14.20
2022-12-28T12:34:24.838Z,12.00
2022-12-28T12:37:18.247Z,15.00
2022-12-28T12:39:56.075Z,12.20
2022-12-28T12:42:28.494Z,12.20
2022-12-28T12:44:58.826Z,10.40
2022-12-28T12:47:36.305Z,13.80
2022-12-28T12:50:22.247Z,11.60
2022-12-28T12:52:56.389Z,16.00
2022-12-28T12:55:32.653Z,12.80
2022-12-28T12:58:03.336Z,15.20
2022-12-28T13:00:38.725Z,10.80
2022-12-28T13:03:24.618Z,12.60
2022-12-28T13:05:54.151Z,12.00
2022-12-28T13:08:26.682Z,14.60
2022-12-28T13:10:56.070Z,12.60
2022-12-28T13:13:29.021Z,9.80
2022-12-28T13:16:00.315Z,13.80
2022-12-28T13:18:45.321Z,12.20
2022-12-28T13:21:20.465Z,8.60
2022-12-28T13:23:50.626Z,13.80
2022-12-28T13:26:19.102Z,16.20
2022-12-28T13:28:50.581Z,13.40
2022-12-28T13:31:19.831Z,12.00
2022-12-28T13:33:58.267Z,12.60
2022-12-28T13:36:27.065Z,13.00
2022-12-28T13:39:04.136Z,12.60
2022-12-28T13:41:33.729Z,12.00
2022-12-28T13:44:14.826Z,1.40
2022-12-28T13:46:46.544Z,13.80
2022-12-28T13:49:15.169Z,15.40
2022-12-28T13:51:47.136Z,12.80
2022-12-28T13:54:19.960Z,13.40
2022-12-28T13:56:48.497Z,12.40
2022-12-28T13:59:18.452Z,15.40
2022-12-28T14:01:50.368Z,18.40
2022-12-28T14:07:12.605Z,17.60
2022-12-28T14:09:42.488Z,14.80
2022-12-28T14:12:11.041Z,12.20
2022-12-28T14:14:39.506Z,17.00
2022-12-28T14:17:08.791Z,15.00
2022-12-28T14:19:37.513Z,14.80
2022-12-28T14:22:25.140Z,15.60
2022-12-28T14:25:01.304Z,16.20
2022-12-28T14:27:29.986Z,17.40
2022-12-28T14:29:59.016Z,19.00
2022-12-28T14:32:27.484Z,16.00
2022-12-28T14:34:59.458Z,8.60
2022-12-28T14:37:29.102Z,14.60
2022-12-28T14:40:01.437Z,18.00
2022-12-28T14:42:31.525Z,13.40
2022-12-28T14:45:01.272Z,13.00
2022-12-28T14:47:37.412Z,11.80
2022-12-28T14:50:14.472Z,17.20
2022-12-28T14:52:47.327Z,16.80
2022-12-28T14:55:24.251Z,13.40
2022-12-28T14:57:55.386Z,13.00
2022-12-28T15:00:25.237Z,15.20
2022-12-28T15:02:54.062Z,14.20
2022-12-28T15:05:38.580Z,12.40
2022-12-28T15:08:07.308Z,9.20
2022-12-28T15:10:37.889Z,10.60
2022-12-28T15:13:06.038Z,10.00
2022-12-28T15:15:34.619Z,12.00
2022-12-28T15:18:03.139Z,12.00
2022-12-28T15:20:31.495Z,12.20
2022-12-28T15:22:59.735Z,9.60
2022-12-28T15:25:28.141Z,9.00
2022-12-28T15:27:57.891Z,3.20
2022-12-28T15:30:29.273Z,4.00
2022-12-28T15:32:57.768Z,12.00
2022-12-28T15:35:25.992Z,6.40
2022-12-28T15:37:54.166Z,14.60
2022-12-28T15:40:22.295Z,9.20
2022-12-28T15:42:50.608Z,11.20
2022-12-28T15:45:20.217Z,11.20
2022-12-28T15:47:48.582Z,11.20
2022-12-28T15:50:16.909Z,12.00
2022-12-28T15:52:45.057Z,12.00
2022-12-28T15:55:13.345Z,12.20
2022-12-28T15:57:41.550Z,11.00
2022-12-28T16:00:10.337Z,15.00
2022-12-28T16:02:40.170Z,7.20
2022-12-28T16:05:08.726Z,12.60
2022-12-28T16:07:37.217Z,6.60
2022-12-28T16:10:05.591Z,4.00
2022-12-28T16:12:33.760Z,13.40
2022-12-28T16:15:01.955Z,2.20
2022-12-28T16:17:32.463Z,10.00
2022-12-28T16:20:04.664Z,8.00
2022-12-28T16:22:32.806Z,12.80
2022-12-28T16:25:00.977Z,13.40
2022-12-28T16:27:29.304Z,7.40
2022-12-28T16:29:58.983Z,12.00
2022-12-28T16:32:28.287Z,9.60
2022-12-28T16:34:56.517Z,10.00
2022-12-28T16:37:26.319Z,9.20
2022-12-28T16:39:54.516Z,3.80
2022-12-28T16:42:22.711Z,8.00
2022-12-28T16:44:51.065Z,11.40
2022-12-28T16:47:19.591Z,12.60
2022-12-28T16:49:47.861Z,10.80
2022-12-28T16:52:16.038Z,3.80
2022-12-28T16:54:46.022Z,1.00
2022-12-28T16:57:14.398Z,12.00
2022-12-28T16:59:42.679Z,14.20
2022-12-28T17:02:13.787Z,9.80
2022-12-28T17:04:42.048Z,7.00
2022-12-28T17:07:10.309Z,9.40
2022-12-28T17:09:44.046Z,7.00
2022-12-28T17:12:17.465Z,10.00
2022-12-28T17:14:45.643Z,6.00
2022-12-28T17:17:13.853Z,12.80
2022-12-28T17:19:42.097Z,6.20
2022-12-28T17:22:10.407Z,9.60
2022-12-28T17:24:38.679Z,10.00
2022-12-28T17:27:09.032Z,11.60
2022-12-28T17:29:40.708Z,12.00
2022-12-28T17:32:09.388Z,10.00
2022-12-28T17:34:37.786Z,9.80
2022-12-28T17:37:06.116Z,8.60
2022-12-28T17:39:39.967Z,7.80
2022-12-28T17:42:09.088Z,12.40
2022-12-28T17:44:37.307Z,6.20
2022-12-28T17:47:06.942Z,0.80
2022-12-28T17:49:35.177Z,9.60
2022-12-28T17:52:03.392Z,11.60
2022-12-28T17:54:31.702Z,7.40
2022-12-28T17:57:00.010Z,7.00
2022-12-28T17:59:28.445Z,3.00
2022-12-28T18:01:57.177Z,8.60
2022-12-28T18:04:27.002Z,6.40
2022-12-28T18:06:55.253Z,9.00
2022-12-28T18:09:27.689Z,15.60
2022-12-28T18:11:56.751Z,10.00
2022-12-28T18:14:25.245Z,10.40
2022-12-28T18:16:53.654Z,10.00
2022-12-28T18:19:22.432Z,5.20
2022-12-28T18:21:52.186Z,2.40
2022-12-28T18:24:21.272Z,3.40
2022-12-28T18:26:49.928Z,10.80
2022-12-28T18:29:18.115Z,9.80
2022-12-28T18:31:46.455Z,5.60
2022-12-28T18:34:14.784Z,12.20
2022-12-28T18:36:43.696Z,9.20
2022-12-28T18:39:13.643Z,7.40
2022-12-28T18:41:41.961Z,6.80
2022-12-28T18:44:10.488Z,6.20
2022-12-28T18:46:38.749Z,8.40
2022-12-28T18:49:06.997Z,9.80
2022-12-28T18:51:35.176Z,6.00
2022-12-28T18:54:03.318Z,0.00
2022-12-28T18:56:32.879Z,3.00
2022-12-28T18:59:01.036Z,6.20
2022-12-28T19:02:05.053Z,3.20
2022-12-28T19:04:18.752Z,9.80
2022-12-28T19:06:47.361Z,11.00
2022-12-28T19:09:15.550Z,4.80
2022-12-28T19:11:45.452Z,5.60
2022-12-28T19:14:14.680Z,7.80
2022-12-28T19:16:43.002Z,10.80
2022-12-28T19:19:11.650Z,7.00
2022-12-28T19:22:05.738Z,12.00
2022-12-28T19:24:34.015Z,8.40
2022-12-28T19:27:03.613Z,12.00
2022-12-28T19:29:32.433Z,11.60
2022-12-28T19:32:00.698Z,13.40
2022-12-28T19:34:28.944Z,15.20
2022-12-28T19:36:57.299Z,10.80
2022-12-28T19:39:26.899Z,12.00
2022-12-28T19:41:54.994Z,5.60
2022-12-28T19:44:27.659Z,15.40
2022-12-28T19:46:56.233Z,12.00
2022-12-28T19:49:24.505Z,15.40
2022-12-28T19:51:52.706Z,15.00
2022-12-28T19:54:20.916Z,17.20
2022-12-28T19:56:49.081Z,14.20
2022-12-28T19:59:17.214Z,9.20
2022-12-28T20:01:46.911Z,9.20
2022-12-28T20:04:15.157Z,15.00
2022-12-28T20:06:44.745Z,13.80
2022-12-28T20:09:14.010Z,13.80
2022-12-28T20:11:42.413Z,14.20
2022-12-28T20:14:12.204Z,14.60
2022-12-28T20:16:40.555Z,10.00
2022-12-28T20:19:11.271Z,13.40
2022-12-28T20:21:41.608Z,17.60
2022-12-28T20:24:10.292Z,13.60
2022-12-28T20:26:38.432Z,15.20
2022-12-28T20:29:06.635Z,12.60
2022-12-28T20:31:34.833Z,13.20
2022-12-28T20:34:03.135Z,12.80
2022-12-28T20:36:34.182Z,15.40
2022-12-28T20:39:02.743Z,15.60
2022-12-28T20:41:48.693Z,16.00
2022-12-28T20:44:18.070Z,13.00
2022-12-28T20:46:46.321Z,13.40
2022-12-28T20:49:14.568Z,12.40
2022-12-28T20:51:44.175Z,10.20
2022-12-28T20:54:12.303Z,12.20
2022-12-28T20:56:42.426Z,11.00
2022-12-28T20:59:11.100Z,8.50
2022-12-28T21:01:39.714Z,12.00
2022-12-28T21:04:08.469Z,10.50
2022-12-28T21:06:37.057Z,8.00
2022-12-28T21:09:06.761Z,9.50
2022-12-28T21:11:34.947Z,4.00
2022-12-28T21:14:03.063Z,6.00
2022-12-28T21:16:31.291Z,5.50
2022-12-28T21:18:59.485Z,7.50
2022-12-28T21:21:27.598Z,8.00
2022-12-28T21:23:55.826Z,4.00
2022-12-28T21:26:25.919Z,9.00
2022-12-28T21:28:54.120Z,6.50
2022-12-28T21:31:22.381Z,9.00
2022-12-28T21:33:50.512Z,6.50
2022-12-28T21:36:19.614Z,6.50
2022-12-28T21:38:48.764Z,6.75
2022-12-28T21:41:38.497Z,4.00
2022-12-28T21:44:08.948Z,6.00
2022-12-28T21:46:39.175Z,7.00
2022-12-28T21:49:07.932Z,3.25
2022-12-28T21:51:37.545Z,4.50
2022-12-28T21:54:07.091Z,4.50
2022-12-28T21:56:36.253Z,4.00
2022-12-28T21:59:05.070Z,5.00
2022-12-28T22:01:52.241Z,3.50
2022-12-28T22:04:38.958Z,5.75
2022-12-28T22:07:07.705Z,4.00
2022-12-28T22:09:53.109Z,4.00
2022-12-28T22:12:37.398Z,3.00
2022-12-28T22:15:27.169Z,3.75
2022-12-28T22:17:57.768Z,7.75
2022-12-28T22:20:27.015Z,4.00
2022-12-28T22:22:56.433Z,4.00
2022-12-28T22:25:25.066Z,3.50
2022-12-28T22:27:53.458Z,1.00
2022-12-28T22:30:21.855Z,4.50
2022-12-28T22:32:50.024Z,3.50
2022-12-28T22:35:19.690Z,5.50
2022-12-28T22:37:48.019Z,4.50
2022-12-28T22:40:16.579Z,6.00
2022-12-28T22:42:45.310Z,4.50
2022-12-28T22:45:14.328Z,5.50
2022-12-28T22:47:42.506Z,0.25
2022-12-28T22:50:11.992Z,4.50
2022-12-28T22:52:41.541Z,1.00
2022-12-28T22:55:10.393Z,5.00
2022-12-28T22:57:38.700Z,3.00
2022-12-28T23:00:08.116Z,3.00
2022-12-28T23:02:36.441Z,1.00
2022-12-28T23:05:05.040Z,3.00
2022-12-28T23:07:34.761Z,3.00
2022-12-28T23:10:04.480Z,4.25
2022-12-28T23:12:32.616Z,4.00
2022-12-28T23:15:20.671Z,3.00
2022-12-28T23:17:49.881Z,4.00
2022-12-28T23:20:35.728Z,5.50
2022-12-28T23:23:21.454Z,0.00
2022-12-28T23:26:08.330Z,4.00
2022-12-28T23:28:37.145Z,3.50
2022-12-28T23:31:05.592Z,3.50
2022-12-28T23:33:33.892Z,3.25
2022-12-28T23:36:02.924Z,5.00
2022-12-28T23:38:31.976Z,3.75
2022-12-28T23:41:22.940Z,4.50
2022-12-28T23:43:51.062Z,4.00
2022-12-28T23:46:19.285Z,3.25
2022-12-28T23:48:47.554Z,4.00
2022-12-28T23:51:17.252Z,4.00
2022-12-28T23:53:45.601Z,5.00
2022-12-28T23:56:15.408Z,4.00
2022-12-28T23:58:43.556Z,3.00
